sensor_id;sensor_type;location;lat;lon;timestamp;temperature;humidity
30134;DHT22;16946;49.984;10.672;2022-11-14T00:00:00;1.90;99.90
30134;DHT22;16946;49.984;10.672;2022-11-14T00:00:32;2.00;99.90
30134;DHT22;16946;49.984;10.672;2022-11-14T00:01:08;2.00;99.90
30134;DHT22;16946;49.984;10.672;2022-11-14T00:01:39;2.00;99.90
30134;DHT22;16946;49.984;10.672;2022-11-14T00:02:09;2.00;99.90
30134;DHT22;16946;49.984;10.672;2022-11-14T00:02:40;2.00;99.90
30134;DHT22;16946;49.984;10.672;2022-11-14T00:03:11;2.10;99.90
30134;DHT22;16946;49.984;10.672;2022-11-14T00:03:42;2.10;99.90
30134;DHT22;16946;49.984;10.672;2022-11-14T00:04:12;2.10;99.90
30134;DHT22;16946;49.984;10.672;2022-11-14T00:04:47;2.20;99.90
30134;DHT22;16946;49.984;10.672;2022-11-14T00:05:18;2.20;99.90
30134;DHT22;16946;49.984;10.672;2022-11-14T00:05:49;2.20;99.90
30134;DHT22;16946;49.984;10.672;2022-11-14T00:06:19;2.20;99.90
30134;DHT22;16946;49.984;10.672;2022-11-14T00:06:50;2.20;99.90
30134;DHT22;16946;49.984;10.672;2022-11-14T00:07:20;2.30;99.90
30134;DHT22;16946;49.984;10.672;2022-11-14T00:07:51;2.30;99.90
30134;DHT22;16946;49.984;10.672;2022-11-14T00:08:23;2.20;99.90
30134;DHT22;16946;49.984;10.672;2022-11-14T00:08:54;2.30;99.90
30134;DHT22;16946;49.984;10.672;2022-11-14T00:09:26;2.30;99.90
30134;DHT22;16946;49.984;10.672;2022-11-14T00:09:57;2.30;99.90
30134;DHT22;16946;49.984;10.672;2022-11-14T00:10:27;2.30;99.90
30134;DHT22;16946;49.984;10.672;2022-11-14T00:10:58;2.30;99.90
30134;DHT22;16946;49.984;10.672;2022-11-14T00:11:28;2.40;99.90
30134;DHT22;16946;49.984;10.672;2022-11-14T00:11:59;2.40;99.90
30134;DHT22;16946;49.984;10.672;2022-11-14T00:12:30;2.40;99.90
30134;DHT22;16946;49.984;10.672;2022-11-14T00:13:00;2.40;99.90
30134;DHT22;16946;49.984;10.672;2022-11-14T00:13:31;2.40;99.90
30134;DHT22;16946;49.984;10.672;2022-11-14T00:14:01;2.40;99.90
30134;DHT22;16946;49.984;10.672;2022-11-14T00:14:32;2.30;99.90
30134;DHT22;16946;49.984;10.672;2022-11-14T00:15:03;2.40;99.90
30134;DHT22;16946;49.984;10.672;2022-11-14T00:15:33;2.30;99.90
30134;DHT22;16946;49.984;10.672;2022-11-14T00:16:04;2.30;99.90
30134;DHT22;16946;49.984;10.672;2022-11-14T00:16:35;2.20;99.90
30134;DHT22;16946;49.984;10.672;2022-11-14T00:17:05;2.20;99.90
30134;DHT22;16946;49.984;10.672;2022-11-14T00:17:36;2.20;99.90
30134;DHT22;16946;49.984;10.672;2022-11-14T00:18:07;2.20;99.90
30134;DHT22;16946;49.984;10.672;2022-11-14T00:18:37;2.20;99.90
30134;DHT22;16946;49.984;10.672;2022-11-14T00:19:08;2.10;99.90
30134;DHT22;16946;49.984;10.672;2022-11-14T00:19:38;2.10;99.90
30134;DHT22;16946;49.984;10.672;2022-11-14T00:20:10;2.00;99.90
30134;DHT22;16946;49.984;10.672;2022-11-14T00:20:41;2.00;99.90
30134;DHT22;16946;49.984;10.672;2022-11-14T00:21:11;2.00;99.90
30134;DHT22;16946;49.984;10.672;2022-11-14T00:21:42;2.00;99.90
30134;DHT22;16946;49.984;10.672;2022-11-14T00:22:15;2.00;99.90
30134;DHT22;16946;49.984;10.672;2022-11-14T00:22:46;1.90;99.90
30134;DHT22;16946;49.984;10.672;2022-11-14T00:23:17;1.90;99.90
30134;DHT22;16946;49.984;10.672;2022-11-14T00:23:48;1.90;99.90
30134;DHT22;16946;49.984;10.672;2022-11-14T00:24:19;1.90;99.90
30134;DHT22;16946;49.984;10.672;2022-11-14T00:24:49;1.80;99.90
30134;DHT22;16946;49.984;10.672;2022-11-14T00:25:20;1.80;99.90
30134;DHT22;16946;49.984;10.672;2022-11-14T00:25:51;1.90;99.90
30134;DHT22;16946;49.984;10.672;2022-11-14T00:26:21;1.90;99.90
30134;DHT22;16946;49.984;10.672;2022-11-14T00:26:52;2.00;99.90
30134;DHT22;16946;49.984;10.672;2022-11-14T00:27:22;2.00;99.90
30134;DHT22;16946;49.984;10.672;2022-11-14T00:27:56;2.00;99.90
30134;DHT22;16946;49.984;10.672;2022-11-14T00:28:27;2.00;99.90
30134;DHT22;16946;49.984;10.672;2022-11-14T00:28:57;2.10;99.90
30134;DHT22;16946;49.984;10.672;2022-11-14T00:29:28;2.10;99.90
30134;DHT22;16946;49.984;10.672;2022-11-14T00:29:58;2.10;99.90
30134;DHT22;16946;49.984;10.672;2022-11-14T00:30:29;2.10;99.90
30134;DHT22;16946;49.984;10.672;2022-11-14T00:30:59;2.20;99.90
30134;DHT22;16946;49.984;10.672;2022-11-14T00:31:30;2.20;99.90
30134;DHT22;16946;49.984;10.672;2022-11-14T00:32:00;2.20;99.90
30134;DHT22;16946;49.984;10.672;2022-11-14T00:32:31;2.20;99.90
30134;DHT22;16946;49.984;10.672;2022-11-14T00:33:01;2.20;99.90
30134;DHT22;16946;49.984;10.672;2022-11-14T00:33:32;2.20;99.90
30134;DHT22;16946;49.984;10.672;2022-11-14T00:34:03;2.30;99.90
30134;DHT22;16946;49.984;10.672;2022-11-14T00:34:33;2.30;99.90
30134;DHT22;16946;49.984;10.672;2022-11-14T00:35:04;2.30;99.90
30134;DHT22;16946;49.984;10.672;2022-11-14T00:35:35;2.30;99.90
30134;DHT22;16946;49.984;10.672;2022-11-14T00:36:05;2.30;99.90
30134;DHT22;16946;49.984;10.672;2022-11-14T00:36:36;2.30;99.90
30134;DHT22;16946;49.984;10.672;2022-11-14T00:37:06;2.30;99.90
30134;DHT22;16946;49.984;10.672;2022-11-14T00:37:37;2.30;99.90
30134;DHT22;16946;49.984;10.672;2022-11-14T00:38:07;2.30;99.90
30134;DHT22;16946;49.984;10.672;2022-11-14T00:38:38;2.30;99.90
30134;DHT22;16946;49.984;10.672;2022-11-14T00:39:12;2.30;99.90
30134;DHT22;16946;49.984;10.672;2022-11-14T00:39:43;2.30;99.90
30134;DHT22;16946;49.984;10.672;2022-11-14T00:40:13;2.30;99.90
30134;DHT22;16946;49.984;10.672;2022-11-14T00:40:44;2.30;99.90
30134;DHT22;16946;49.984;10.672;2022-11-14T00:41:14;2.30;99.90
30134;DHT22;16946;49.984;10.672;2022-11-14T00:41:45;2.30;99.90
30134;DHT22;16946;49.984;10.672;2022-11-14T00:42:15;2.30;99.90
30134;DHT22;16946;49.984;10.672;2022-11-14T00:42:46;2.30;99.90
30134;DHT22;16946;49.984;10.672;2022-11-14T00:43:17;2.30;99.90
30134;DHT22;16946;49.984;10.672;2022-11-14T00:43:47;2.30;99.90
30134;DHT22;16946;49.984;10.672;2022-11-14T00:44:18;2.30;99.90
30134;DHT22;16946;49.984;10.672;2022-11-14T00:44:48;2.30;99.90
30134;DHT22;16946;49.984;10.672;2022-11-14T00:45:19;2.30;99.90
30134;DHT22;16946;49.984;10.672;2022-11-14T00:45:49;2.30;99.90
30134;DHT22;16946;49.984;10.672;2022-11-14T00:46:20;2.20;99.90
30134;DHT22;16946;49.984;10.672;2022-11-14T00:46:51;2.20;99.90
30134;DHT22;16946;49.984;10.672;2022-11-14T00:47:21;2.20;99.90
30134;DHT22;16946;49.984;10.672;2022-11-14T00:47:52;2.20;99.90
30134;DHT22;16946;49.984;10.672;2022-11-14T00:48:23;2.20;99.90
30134;DHT22;16946;49.984;10.672;2022-11-14T00:48:53;2.20;99.90
30134;DHT22;16946;49.984;10.672;2022-11-14T00:49:24;2.20;99.90
30134;DHT22;16946;49.984;10.672;2022-11-14T00:49:54;2.20;99.90
30134;DHT22;16946;49.984;10.672;2022-11-14T00:50:25;2.30;99.90
30134;DHT22;16946;49.984;10.672;2022-11-14T00:50:55;2.30;99.90
30134;DHT22;16946;49.984;10.672;2022-11-14T00:51:26;2.30;99.90
30134;DHT22;16946;49.984;10.672;2022-11-14T00:51:56;2.30;99.90
30134;DHT22;16946;49.984;10.672;2022-11-14T00:52:27;2.30;99.90
30134;DHT22;16946;49.984;10.672;2022-11-14T00:52:57;2.30;99.90
30134;DHT22;16946;49.984;10.672;2022-11-14T00:53:28;2.30;99.90
30134;DHT22;16946;49.984;10.672;2022-11-14T00:53:58;2.30;99.90
30134;DHT22;16946;49.984;10.672;2022-11-14T00:54:29;2.30;99.90
30134;DHT22;16946;49.984;10.672;2022-11-14T00:54:59;2.30;99.90
30134;DHT22;16946;49.984;10.672;2022-11-14T00:55:30;2.20;99.90
30134;DHT22;16946;49.984;10.672;2022-11-14T00:56:00;2.20;99.90
30134;DHT22;16946;49.984;10.672;2022-11-14T00:56:31;2.10;99.90
30134;DHT22;16946;49.984;10.672;2022-11-14T00:57:02;2.10;99.90
30134;DHT22;16946;49.984;10.672;2022-11-14T00:57:32;2.00;99.90
30134;DHT22;16946;49.984;10.672;2022-11-14T00:58:03;2.00;99.90
30134;DHT22;16946;49.984;10.672;2022-11-14T00:58:33;2.00;99.90
30134;DHT22;16946;49.984;10.672;2022-11-14T00:59:04;1.90;99.90
30134;DHT22;16946;49.984;10.672;2022-11-14T00:59:34;1.90;99.90
30134;DHT22;16946;49.984;10.672;2022-11-14T01:00:06;1.80;99.90
30134;DHT22;16946;49.984;10.672;2022-11-14T01:00:37;1.80;99.90
30134;DHT22;16946;49.984;10.672;2022-11-14T01:01:07;1.80;99.90
30134;DHT22;16946;49.984;10.672;2022-11-14T01:01:38;1.80;99.90
30134;DHT22;16946;49.984;10.672;2022-11-14T01:02:08;1.80;99.90
30134;DHT22;16946;49.984;10.672;2022-11-14T01:02:39;1.80;99.90
30134;DHT22;16946;49.984;10.672;2022-11-14T01:03:10;1.80;99.90
30134;DHT22;16946;49.984;10.672;2022-11-14T01:03:40;1.90;99.90
30134;DHT22;16946;49.984;10.672;2022-11-14T01:04:11;1.90;99.90
30134;DHT22;16946;49.984;10.672;2022-11-14T01:04:41;1.90;99.90
30134;DHT22;16946;49.984;10.672;2022-11-14T01:05:12;1.90;99.90
30134;DHT22;16946;49.984;10.672;2022-11-14T01:05:48;2.00;99.90
30134;DHT22;16946;49.984;10.672;2022-11-14T01:06:19;2.00;99.90
30134;DHT22;16946;49.984;10.672;2022-11-14T01:06:49;2.00;99.90
30134;DHT22;16946;49.984;10.672;2022-11-14T01:07:20;2.00;99.90
30134;DHT22;16946;49.984;10.672;2022-11-14T01:07:51;2.00;99.90
30134;DHT22;16946;49.984;10.672;2022-11-14T01:08:21;2.10;99.90
30134;DHT22;16946;49.984;10.672;2022-11-14T01:08:52;2.10;99.90
30134;DHT22;16946;49.984;10.672;2022-11-14T01:09:22;2.10;99.90
30134;DHT22;16946;49.984;10.672;2022-11-14T01:09:53;2.10;99.90
30134;DHT22;16946;49.984;10.672;2022-11-14T01:10:24;2.10;99.90
30134;DHT22;16946;49.984;10.672;2022-11-14T01:10:54;2.10;99.90
30134;DHT22;16946;49.984;10.672;2022-11-14T01:11:25;2.10;99.90
30134;DHT22;16946;49.984;10.672;2022-11-14T01:11:55;2.20;99.90
30134;DHT22;16946;49.984;10.672;2022-11-14T01:12:26;2.20;99.90
30134;DHT22;16946;49.984;10.672;2022-11-14T01:12:56;2.20;99.90
30134;DHT22;16946;49.984;10.672;2022-11-14T01:13:31;2.20;99.90
30134;DHT22;16946;49.984;10.672;2022-11-14T01:14:05;2.20;99.90
30134;DHT22;16946;49.984;10.672;2022-11-14T01:14:35;2.20;99.90
30134;DHT22;16946;49.984;10.672;2022-11-14T01:15:07;2.20;99.90
30134;DHT22;16946;49.984;10.672;2022-11-14T01:15:45;2.30;99.90
30134;DHT22;16946;49.984;10.672;2022-11-14T01:16:17;2.30;99.90
30134;DHT22;16946;49.984;10.672;2022-11-14T01:16:49;2.30;99.90
30134;DHT22;16946;49.984;10.672;2022-11-14T01:17:19;2.30;99.90
30134;DHT22;16946;49.984;10.672;2022-11-14T01:17:50;2.30;99.90
30134;DHT22;16946;49.984;10.672;2022-11-14T01:18:21;2.20;99.90
30134;DHT22;16946;49.984;10.672;2022-11-14T01:18:51;2.20;99.90
30134;DHT22;16946;49.984;10.672;2022-11-14T01:19:22;2.20;99.90
30134;DHT22;16946;49.984;10.672;2022-11-14T01:19:53;2.20;99.90
30134;DHT22;16946;49.984;10.672;2022-11-14T01:20:24;2.20;99.90
30134;DHT22;16946;49.984;10.672;2022-11-14T01:20:54;2.20;99.90
30134;DHT22;16946;49.984;10.672;2022-11-14T01:21:25;2.20;99.90
30134;DHT22;16946;49.984;10.672;2022-11-14T01:21:55;2.20;99.90
30134;DHT22;16946;49.984;10.672;2022-11-14T01:22:26;2.30;99.90
30134;DHT22;16946;49.984;10.672;2022-11-14T01:22:56;2.30;99.90
30134;DHT22;16946;49.984;10.672;2022-11-14T01:23:27;2.30;99.90
30134;DHT22;16946;49.984;10.672;2022-11-14T01:23:57;2.30;99.90
30134;DHT22;16946;49.984;10.672;2022-11-14T01:24:28;2.30;99.90
30134;DHT22;16946;49.984;10.672;2022-11-14T01:24:58;2.30;99.90
30134;DHT22;16946;49.984;10.672;2022-11-14T01:25:31;2.30;99.90
30134;DHT22;16946;49.984;10.672;2022-11-14T01:26:08;2.30;99.90
30134;DHT22;16946;49.984;10.672;2022-11-14T01:26:39;2.30;99.90
30134;DHT22;16946;49.984;10.672;2022-11-14T01:27:09;2.40;99.90
30134;DHT22;16946;49.984;10.672;2022-11-14T01:27:40;2.30;99.90
30134;DHT22;16946;49.984;10.672;2022-11-14T01:28:13;2.30;99.90
30134;DHT22;16946;49.984;10.672;2022-11-14T01:28:44;2.30;99.90
30134;DHT22;16946;49.984;10.672;2022-11-14T01:29:14;2.30;99.90
30134;DHT22;16946;49.984;10.672;2022-11-14T01:29:45;2.40;99.90
30134;DHT22;16946;49.984;10.672;2022-11-14T01:30:15;2.30;99.90
30134;DHT22;16946;49.984;10.672;2022-11-14T01:30:46;2.30;99.90
30134;DHT22;16946;49.984;10.672;2022-11-14T01:31:19;2.30;99.90
30134;DHT22;16946;49.984;10.672;2022-11-14T01:31:50;2.20;99.90
30134;DHT22;16946;49.984;10.672;2022-11-14T01:32:21;2.20;99.90
30134;DHT22;16946;49.984;10.672;2022-11-14T01:32:51;2.20;99.90
30134;DHT22;16946;49.984;10.672;2022-11-14T01:33:22;2.20;99.90
30134;DHT22;16946;49.984;10.672;2022-11-14T01:33:53;2.10;99.90
30134;DHT22;16946;49.984;10.672;2022-11-14T01:34:23;2.10;99.90
30134;DHT22;16946;49.984;10.672;2022-11-14T01:34:54;2.10;99.90
30134;DHT22;16946;49.984;10.672;2022-11-14T01:35:24;2.10;99.90
30134;DHT22;16946;49.984;10.672;2022-11-14T01:35:58;2.10;99.90
30134;DHT22;16946;49.984;10.672;2022-11-14T01:36:29;2.10;99.90
30134;DHT22;16946;49.984;10.672;2022-11-14T01:37:00;2.10;99.90
30134;DHT22;16946;49.984;10.672;2022-11-14T01:37:30;2.00;99.90
30134;DHT22;16946;49.984;10.672;2022-11-14T01:38:01;2.00;99.90
30134;DHT22;16946;49.984;10.672;2022-11-14T01:38:32;2.00;99.90
30134;DHT22;16946;49.984;10.672;2022-11-14T01:39:03;2.00;99.90
30134;DHT22;16946;49.984;10.672;2022-11-14T01:39:33;2.00;99.90
30134;DHT22;16946;49.984;10.672;2022-11-14T01:40:04;2.00;99.90
30134;DHT22;16946;49.984;10.672;2022-11-14T01:40:40;1.90;99.90
30134;DHT22;16946;49.984;10.672;2022-11-14T01:41:14;1.90;99.90
30134;DHT22;16946;49.984;10.672;2022-11-14T01:41:45;1.90;99.90
30134;DHT22;16946;49.984;10.672;2022-11-14T01:42:15;1.80;99.90
30134;DHT22;16946;49.984;10.672;2022-11-14T01:43:41;1.80;99.90
30134;DHT22;16946;49.984;10.672;2022-11-14T01:44:17;1.70;99.90
30134;DHT22;16946;49.984;10.672;2022-11-14T01:44:52;1.60;99.90
30134;DHT22;16946;49.984;10.672;2022-11-14T01:46:22;1.50;99.90
30134;DHT22;16946;49.984;10.672;2022-11-14T01:46:55;1.50;99.90
30134;DHT22;16946;49.984;10.672;2022-11-14T01:47:29;1.40;99.90
30134;DHT22;16946;49.984;10.672;2022-11-14T01:48:00;1.30;99.90
30134;DHT22;16946;49.984;10.672;2022-11-14T01:48:32;1.30;99.90
30134;DHT22;16946;49.984;10.672;2022-11-14T01:49:53;1.20;99.90
30134;DHT22;16946;49.984;10.672;2022-11-14T01:50:26;1.20;99.90
30134;DHT22;16946;49.984;10.672;2022-11-14T01:51:00;1.20;99.90
30134;DHT22;16946;49.984;10.672;2022-11-14T01:51:40;1.20;99.90
30134;DHT22;16946;49.984;10.672;2022-11-14T01:52:18;1.10;99.90
30134;DHT22;16946;49.984;10.672;2022-11-14T01:52:49;1.10;99.90
30134;DHT22;16946;49.984;10.672;2022-11-14T01:53:20;1.20;99.90
30134;DHT22;16946;49.984;10.672;2022-11-14T01:53:53;1.20;99.90
30134;DHT22;16946;49.984;10.672;2022-11-14T01:54:27;1.20;99.90
30134;DHT22;16946;49.984;10.672;2022-11-14T01:55:00;1.20;99.90
30134;DHT22;16946;49.984;10.672;2022-11-14T01:55:31;1.20;99.90
30134;DHT22;16946;49.984;10.672;2022-11-14T01:56:04;1.20;99.90
30134;DHT22;16946;49.984;10.672;2022-11-14T01:56:43;1.20;99.90
30134;DHT22;16946;49.984;10.672;2022-11-14T01:57:19;1.20;99.90
30134;DHT22;16946;49.984;10.672;2022-11-14T01:57:50;1.20;99.90
30134;DHT22;16946;49.984;10.672;2022-11-14T01:58:21;1.20;99.90
30134;DHT22;16946;49.984;10.672;2022-11-14T01:59:02;1.20;99.90
30134;DHT22;16946;49.984;10.672;2022-11-14T01:59:38;1.10;99.90
30134;DHT22;16946;49.984;10.672;2022-11-14T02:00:11;1.10;99.90
30134;DHT22;16946;49.984;10.672;2022-11-14T02:00:42;1.10;99.90
30134;DHT22;16946;49.984;10.672;2022-11-14T02:01:13;1.10;99.90
30134;DHT22;16946;49.984;10.672;2022-11-14T02:01:46;1.10;99.90
30134;DHT22;16946;49.984;10.672;2022-11-14T02:02:20;1.10;99.90
30134;DHT22;16946;49.984;10.672;2022-11-14T02:02:51;1.10;99.90
30134;DHT22;16946;49.984;10.672;2022-11-14T02:03:23;1.10;99.90
30134;DHT22;16946;49.984;10.672;2022-11-14T02:03:54;1.00;99.90
30134;DHT22;16946;49.984;10.672;2022-11-14T02:04:33;1.10;99.90
30134;DHT22;16946;49.984;10.672;2022-11-14T02:05:12;1.00;99.90
30134;DHT22;16946;49.984;10.672;2022-11-14T02:05:45;0.90;99.90
30134;DHT22;16946;49.984;10.672;2022-11-14T02:06:19;0.90;99.90
30134;DHT22;16946;49.984;10.672;2022-11-14T02:06:53;0.90;99.90
30134;DHT22;16946;49.984;10.672;2022-11-14T02:07:26;0.90;99.90
30134;DHT22;16946;49.984;10.672;2022-11-14T02:07:58;0.90;99.90
30134;DHT22;16946;49.984;10.672;2022-11-14T02:08:29;0.90;99.90
30134;DHT22;16946;49.984;10.672;2022-11-14T02:09:02;0.90;99.90
30134;DHT22;16946;49.984;10.672;2022-11-14T02:09:36;0.90;99.90
30134;DHT22;16946;49.984;10.672;2022-11-14T02:10:13;0.80;99.90
30134;DHT22;16946;49.984;10.672;2022-11-14T02:10:44;0.80;99.90
30134;DHT22;16946;49.984;10.672;2022-11-14T02:11:15;0.80;99.90
30134;DHT22;16946;49.984;10.672;2022-11-14T02:11:45;0.80;99.90
30134;DHT22;16946;49.984;10.672;2022-11-14T02:12:17;0.80;99.90
30134;DHT22;16946;49.984;10.672;2022-11-14T02:12:48;0.80;99.90
30134;DHT22;16946;49.984;10.672;2022-11-14T02:13:20;0.80;99.90
30134;DHT22;16946;49.984;10.672;2022-11-14T02:13:50;0.80;99.90
30134;DHT22;16946;49.984;10.672;2022-11-14T02:14:21;0.80;99.90
30134;DHT22;16946;49.984;10.672;2022-11-14T02:14:55;0.80;99.90
30134;DHT22;16946;49.984;10.672;2022-11-14T02:15:26;0.80;99.90
30134;DHT22;16946;49.984;10.672;2022-11-14T02:15:57;0.80;99.90
30134;DHT22;16946;49.984;10.672;2022-11-14T02:16:27;0.80;99.90
30134;DHT22;16946;49.984;10.672;2022-11-14T02:16:58;0.80;99.90
30134;DHT22;16946;49.984;10.672;2022-11-14T02:17:29;0.90;99.90
30134;DHT22;16946;49.984;10.672;2022-11-14T02:18:01;0.80;99.90
30134;DHT22;16946;49.984;10.672;2022-11-14T02:18:31;0.90;99.90
30134;DHT22;16946;49.984;10.672;2022-11-14T02:19:04;0.90;99.90
30134;DHT22;16946;49.984;10.672;2022-11-14T02:19:51;0.90;99.90
30134;DHT22;16946;49.984;10.672;2022-11-14T02:20:27;0.90;99.90
30134;DHT22;16946;49.984;10.672;2022-11-14T02:20:58;0.90;99.90
30134;DHT22;16946;49.984;10.672;2022-11-14T02:21:28;0.80;99.90
30134;DHT22;16946;49.984;10.672;2022-11-14T02:21:59;0.80;99.90
30134;DHT22;16946;49.984;10.672;2022-11-14T02:22:29;0.80;99.90
30134;DHT22;16946;49.984;10.672;2022-11-14T02:23:00;0.80;99.90
30134;DHT22;16946;49.984;10.672;2022-11-14T02:23:31;0.80;99.90
30134;DHT22;16946;49.984;10.672;2022-11-14T02:24:03;0.70;99.90
30134;DHT22;16946;49.984;10.672;2022-11-14T02:24:34;0.70;99.90
30134;DHT22;16946;49.984;10.672;2022-11-14T02:25:06;0.70;99.90
30134;DHT22;16946;49.984;10.672;2022-11-14T02:25:38;0.70;99.90
30134;DHT22;16946;49.984;10.672;2022-11-14T02:26:09;0.70;99.90
30134;DHT22;16946;49.984;10.672;2022-11-14T02:26:40;0.70;99.90
30134;DHT22;16946;49.984;10.672;2022-11-14T02:27:12;0.70;99.90
30134;DHT22;16946;49.984;10.672;2022-11-14T02:27:43;0.70;99.90
30134;DHT22;16946;49.984;10.672;2022-11-14T02:28:14;0.70;99.90
30134;DHT22;16946;49.984;10.672;2022-11-14T02:28:45;0.70;99.90
30134;DHT22;16946;49.984;10.672;2022-11-14T02:29:16;0.70;99.90
30134;DHT22;16946;49.984;10.672;2022-11-14T02:29:46;0.70;99.90
30134;DHT22;16946;49.984;10.672;2022-11-14T02:30:21;0.70;99.90
30134;DHT22;16946;49.984;10.672;2022-11-14T02:30:51;0.70;99.90
30134;DHT22;16946;49.984;10.672;2022-11-14T02:31:22;0.70;99.90
30134;DHT22;16946;49.984;10.672;2022-11-14T02:31:52;0.70;99.90
30134;DHT22;16946;49.984;10.672;2022-11-14T02:32:23;0.70;99.90
30134;DHT22;16946;49.984;10.672;2022-11-14T02:32:53;0.70;99.90
30134;DHT22;16946;49.984;10.672;2022-11-14T02:33:24;0.70;99.90
30134;DHT22;16946;49.984;10.672;2022-11-14T02:33:55;0.60;99.90
30134;DHT22;16946;49.984;10.672;2022-11-14T02:34:25;0.60;99.90
30134;DHT22;16946;49.984;10.672;2022-11-14T02:34:56;0.60;99.90
30134;DHT22;16946;49.984;10.672;2022-11-14T02:35:26;0.60;99.90
30134;DHT22;16946;49.984;10.672;2022-11-14T02:35:57;0.60;99.90
30134;DHT22;16946;49.984;10.672;2022-11-14T02:36:28;0.60;99.90
30134;DHT22;16946;49.984;10.672;2022-11-14T02:36:58;0.60;99.90
30134;DHT22;16946;49.984;10.672;2022-11-14T02:37:29;0.60;99.90
30134;DHT22;16946;49.984;10.672;2022-11-14T02:38:00;0.60;99.90
30134;DHT22;16946;49.984;10.672;2022-11-14T02:38:30;0.50;99.90
30134;DHT22;16946;49.984;10.672;2022-11-14T02:39:01;0.50;99.90
30134;DHT22;16946;49.984;10.672;2022-11-14T02:39:31;0.50;99.90
30134;DHT22;16946;49.984;10.672;2022-11-14T02:40:02;0.50;99.90
30134;DHT22;16946;49.984;10.672;2022-11-14T02:40:32;0.50;99.90
30134;DHT22;16946;49.984;10.672;2022-11-14T02:41:03;0.50;99.90
30134;DHT22;16946;49.984;10.672;2022-11-14T02:41:34;0.50;99.90
30134;DHT22;16946;49.984;10.672;2022-11-14T02:42:04;0.50;99.90
30134;DHT22;16946;49.984;10.672;2022-11-14T02:42:35;0.50;99.90
30134;DHT22;16946;49.984;10.672;2022-11-14T02:43:05;0.50;99.90
30134;DHT22;16946;49.984;10.672;2022-11-14T02:43:36;0.50;99.90
30134;DHT22;16946;49.984;10.672;2022-11-14T02:44:06;0.50;99.90
30134;DHT22;16946;49.984;10.672;2022-11-14T02:44:37;0.50;99.90
30134;DHT22;16946;49.984;10.672;2022-11-14T02:45:09;0.50;99.90
30134;DHT22;16946;49.984;10.672;2022-11-14T02:45:40;0.60;99.90
30134;DHT22;16946;49.984;10.672;2022-11-14T02:46:11;0.60;99.90
30134;DHT22;16946;49.984;10.672;2022-11-14T02:46:41;0.60;99.90
30134;DHT22;16946;49.984;10.672;2022-11-14T02:47:12;0.60;99.90
30134;DHT22;16946;49.984;10.672;2022-11-14T02:47:42;0.60;99.90
30134;DHT22;16946;49.984;10.672;2022-11-14T02:48:13;0.70;99.90
30134;DHT22;16946;49.984;10.672;2022-11-14T02:48:43;0.70;99.90
30134;DHT22;16946;49.984;10.672;2022-11-14T02:49:14;0.70;99.90
30134;DHT22;16946;49.984;10.672;2022-11-14T02:49:44;0.70;99.90
30134;DHT22;16946;49.984;10.672;2022-11-14T02:50:16;0.70;99.90
30134;DHT22;16946;49.984;10.672;2022-11-14T02:50:49;0.80;99.90
30134;DHT22;16946;49.984;10.672;2022-11-14T02:51:20;0.80;99.90
30134;DHT22;16946;49.984;10.672;2022-11-14T02:51:50;0.80;99.90
30134;DHT22;16946;49.984;10.672;2022-11-14T02:52:21;0.80;99.90
30134;DHT22;16946;49.984;10.672;2022-11-14T02:52:51;0.80;99.90
30134;DHT22;16946;49.984;10.672;2022-11-14T02:53:23;0.80;99.90
30134;DHT22;16946;49.984;10.672;2022-11-14T02:53:53;0.80;99.90
30134;DHT22;16946;49.984;10.672;2022-11-14T02:54:24;0.80;99.90
30134;DHT22;16946;49.984;10.672;2022-11-14T02:54:54;0.80;99.90
30134;DHT22;16946;49.984;10.672;2022-11-14T02:55:25;0.80;99.90
30134;DHT22;16946;49.984;10.672;2022-11-14T02:55:56;0.80;99.90
30134;DHT22;16946;49.984;10.672;2022-11-14T02:56:26;0.80;99.90
30134;DHT22;16946;49.984;10.672;2022-11-14T02:56:57;0.80;99.90
30134;DHT22;16946;49.984;10.672;2022-11-14T02:57:27;0.80;99.90
30134;DHT22;16946;49.984;10.672;2022-11-14T02:57:58;0.90;99.90
30134;DHT22;16946;49.984;10.672;2022-11-14T02:58:28;0.90;99.90
30134;DHT22;16946;49.984;10.672;2022-11-14T02:58:59;0.90;99.90
30134;DHT22;16946;49.984;10.672;2022-11-14T02:59:29;0.90;99.90
30134;DHT22;16946;49.984;10.672;2022-11-14T03:00:00;0.90;99.90
30134;DHT22;16946;49.984;10.672;2022-11-14T03:00:30;0.90;99.90
30134;DHT22;16946;49.984;10.672;2022-11-14T03:01:01;0.90;99.90
30134;DHT22;16946;49.984;10.672;2022-11-14T03:01:31;0.90;99.90
30134;DHT22;16946;49.984;10.672;2022-11-14T03:02:02;1.00;99.90
30134;DHT22;16946;49.984;10.672;2022-11-14T03:02:33;1.00;99.90
30134;DHT22;16946;49.984;10.672;2022-11-14T03:03:03;1.00;99.90
30134;DHT22;16946;49.984;10.672;2022-11-14T03:03:34;1.00;99.90
30134;DHT22;16946;49.984;10.672;2022-11-14T03:04:04;1.10;99.90
30134;DHT22;16946;49.984;10.672;2022-11-14T03:04:35;1.10;99.90
30134;DHT22;16946;49.984;10.672;2022-11-14T03:05:06;1.10;99.90
30134;DHT22;16946;49.984;10.672;2022-11-14T03:05:37;1.10;99.90
30134;DHT22;16946;49.984;10.672;2022-11-14T03:06:07;1.10;99.90
30134;DHT22;16946;49.984;10.672;2022-11-14T03:06:38;1.10;99.90
30134;DHT22;16946;49.984;10.672;2022-11-14T03:07:09;1.10;99.90
30134;DHT22;16946;49.984;10.672;2022-11-14T03:07:39;1.20;99.90
30134;DHT22;16946;49.984;10.672;2022-11-14T03:08:10;1.20;99.90
30134;DHT22;16946;49.984;10.672;2022-11-14T03:08:40;1.20;99.90
30134;DHT22;16946;49.984;10.672;2022-11-14T03:09:11;1.20;99.90
30134;DHT22;16946;49.984;10.672;2022-11-14T03:09:42;1.20;99.90
30134;DHT22;16946;49.984;10.672;2022-11-14T03:10:12;1.10;99.90
30134;DHT22;16946;49.984;10.672;2022-11-14T03:10:43;1.10;99.90
30134;DHT22;16946;49.984;10.672;2022-11-14T03:11:13;1.20;99.90
30134;DHT22;16946;49.984;10.672;2022-11-14T03:11:44;1.10;99.90
30134;DHT22;16946;49.984;10.672;2022-11-14T03:12:16;1.10;99.90
30134;DHT22;16946;49.984;10.672;2022-11-14T03:12:51;1.20;99.90
30134;DHT22;16946;49.984;10.672;2022-11-14T03:13:21;1.20;99.90
30134;DHT22;16946;49.984;10.672;2022-11-14T03:13:52;1.20;99.90
30134;DHT22;16946;49.984;10.672;2022-11-14T03:14:23;1.20;99.90
30134;DHT22;16946;49.984;10.672;2022-11-14T03:14:53;1.20;99.90
30134;DHT22;16946;49.984;10.672;2022-11-14T03:15:24;1.20;99.90
30134;DHT22;16946;49.984;10.672;2022-11-14T03:15:55;1.30;99.90
30134;DHT22;16946;49.984;10.672;2022-11-14T03:16:25;1.30;99.90
30134;DHT22;16946;49.984;10.672;2022-11-14T03:16:56;1.30;99.90
30134;DHT22;16946;49.984;10.672;2022-11-14T03:17:30;1.30;99.90
30134;DHT22;16946;49.984;10.672;2022-11-14T03:18:01;1.20;99.90
30134;DHT22;16946;49.984;10.672;2022-11-14T03:18:32;1.20;99.90
30134;DHT22;16946;49.984;10.672;2022-11-14T03:19:03;1.30;99.90
30134;DHT22;16946;49.984;10.672;2022-11-14T03:19:33;1.30;99.90
30134;DHT22;16946;49.984;10.672;2022-11-14T03:20:05;1.30;99.90